Nederweert, Netherlands
Current Conditions -  °F | °C
As of 1:25 AM on Thursday 29 Jan 2015 (Local Time) from EBBL Reporting Station
Few Clouds Few Clouds  
Wind Chill: 27°   Ceiling: Unl
Heat Index: 36°   Visibility: 6mi
Dew Point: 28°   Wind: 14mph
Humidity: 75%   Direction: 230°SW
Pressure: 29.47"   Gusts: NA
Location:  51.29°N, 5.75°E
Report Text: EBBL 290025Z 23012KT 9999 FEW060 02/M02 Q0998 BLU
Loading
Personal Weather Stations






























Interactive Weather Map New forecast layout! Learn more

10-Day Weather Forecast

Advertisements
Track Severe Weather on mobile